Time;durP1;ratioP1;P1;durP2;ratioP2;P2;SDS_P1;SDS_P2;PMS_P1;PMS_P2;Temp;Humidity;BMP_temperature;BMP_pressure;BME280_temperature;BME280_humidity;BME280_pressure;Samples;Min_cycle;Max_cycle;Signal;HPM_P1;HPM_P2
2022/05/29 00:00:36;;;;;;;;;;;17.30;93.30;;;;;;4976772;28;19917;-82
2022/05/29 00:03:01;;;;;;;;;;;17.20;93.60;;;;;;4976398;28;20277;-83
2022/05/29 00:05:27;;;;;;;;;;;17.20;93.80;;;;;;4976400;28;19926;-83
2022/05/29 00:07:52;;;;;;;;;;;17.20;93.90;;;;;;4976365;28;19910;-83
2022/05/29 00:10:18;;;;;;;;;;;17.00;94.10;;;;;;4979386;28;19933;-83
2022/05/29 00:12:44;;;;;;;;;;;17.00;94.50;;;;;;4976180;28;19911;-83
2022/05/29 00:15:11;;;;;;;;;;;16.90;94.60;;;;;;4977119;28;19922;-82
2022/05/29 00:17:36;;;;;;;;;;;16.90;95.00;;;;;;4980127;28;19910;-83
2022/05/29 00:20:02;;;;;;;;;;;16.90;95.00;;;;;;4978607;28;19953;-83
2022/05/29 00:22:30;;;;;;;;;;;16.80;95.20;;;;;;4979782;28;20001;-83
2022/05/29 00:24:55;;;;;;;;;;;16.80;95.50;;;;;;4976034;28;19910;-83
2022/05/29 00:27:21;;;;;;;;;;;16.80;95.60;;;;;;4977421;28;19916;-83
2022/05/29 00:29:46;;;;;;;;;;;16.80;95.70;;;;;;4975768;28;19910;-83
2022/05/29 00:32:12;;;;;;;;;;;16.70;95.70;;;;;;4977652;28;19914;-83
2022/05/29 00:34:38;;;;;;;;;;;16.60;95.90;;;;;;4975780;28;19914;-83
2022/05/29 00:37:04;;;;;;;;;;;16.60;95.80;;;;;;4961967;28;19910;-83
2022/05/29 00:39:30;;;;;;;;;;;16.50;96.30;;;;;;4975909;28;20001;-83
2022/05/29 00:41:56;;;;;;;;;;;16.50;96.40;;;;;;4974358;28;19918;-83
2022/05/29 00:44:28;;;;;;;;;;;16.50;96.60;;;;;;4976153;28;19960;-83
2022/05/29 00:46:57;;;;;;;;;;;16.40;96.70;;;;;;4975621;28;19917;-83
2022/05/29 00:49:24;;;;;;;;;;;16.40;97.00;;;;;;4977141;28;19911;-83
2022/05/29 00:51:53;;;;;;;;;;;16.30;97.30;;;;;;4974097;28;19914;-83
2022/05/29 00:54:18;;;;;;;;;;;16.30;97.10;;;;;;4974149;28;19937;-83
2022/05/29 00:56:45;;;;;;;;;;;16.20;97.30;;;;;;4960279;28;20370;-83
2022/05/29 00:59:14;;;;;;;;;;;16.30;97.40;;;;;;4975504;28;20309;-82
2022/05/29 01:01:40;;;;;;;;;;;16.20;97.40;;;;;;4990359;28;19910;-82
2022/05/29 01:04:05;;;;;;;;;;;16.20;97.60;;;;;;4975223;28;19910;-82
2022/05/29 01:06:31;;;;;;;;;;;16.10;97.70;;;;;;4975235;28;19953;-83
2022/05/29 01:08:59;;;;;;;;;;;16.10;97.80;;;;;;4975531;28;19956;-82
2022/05/29 01:11:39;;;;;;;;;;;16.00;97.90;;;;;;4977186;28;19916;-83
2022/05/29 01:14:23;;;;;;;;;;;16.00;98.10;;;;;;4975227;28;19936;-83
2022/05/29 01:16:56;;;;;;;;;;;16.00;98.00;;;;;;4975261;28;20293;-82
2022/05/29 01:19:40;;;;;;;;;;;15.90;98.20;;;;;;4976644;28;19906;-83
2022/05/29 01:22:06;;;;;;;;;;;15.90;98.30;;;;;;4975342;28;19914;-83
2022/05/29 01:24:37;;;;;;;;;;;15.90;98.30;;;;;;4975073;28;19914;-83
2022/05/29 01:27:06;;;;;;;;;;;15.80;98.40;;;;;;4974854;28;19957;-83
2022/05/29 01:29:52;;;;;;;;;;;15.80;98.50;;;;;;4975084;28;19934;-82
2022/05/29 01:32:21;;;;;;;;;;;15.80;98.80;;;;;;4944783;28;19917;-83
2022/05/29 01:34:51;;;;;;;;;;;15.80;98.90;;;;;;4974775;28;19918;-82
2022/05/29 01:37:23;;;;;;;;;;;15.80;98.80;;;;;;4975174;28;19910;-82
2022/05/29 01:39:58;;;;;;;;;;;15.70;98.80;;;;;;4974724;28;19914;-83
2022/05/29 01:42:49;;;;;;;;;;;15.70;98.90;;;;;;4974933;28;19910;-83
2022/05/29 01:45:27;;;;;;;;;;;15.70;99.00;;;;;;4971695;28;19910;-83
2022/05/29 01:47:54;;;;;;;;;;;15.80;98.90;;;;;;4973443;28;19914;-83
2022/05/29 01:50:23;;;;;;;;;;;15.70;98.90;;;;;;4974295;28;19910;-83
2022/05/29 01:52:52;;;;;;;;;;;15.70;99.00;;;;;;4974846;28;20393;-82
2022/05/29 01:55:24;;;;;;;;;;;15.70;98.90;;;;;;4978462;28;19921;-83
2022/05/29 01:57:51;;;;;;;;;;;15.60;99.10;;;;;;4976409;28;19910;-83
2022/05/29 02:00:21;;;;;;;;;;;15.60;99.10;;;;;;4976501;28;19947;-83
2022/05/29 02:02:57;;;;;;;;;;;15.50;99.20;;;;;;4974780;28;20438;-83
2022/05/29 02:05:27;;;;;;;;;;;15.50;99.20;;;;;;4974631;28;20371;-83
2022/05/29 02:07:59;;;;;;;;;;;15.50;99.40;;;;;;4957179;28;20357;-83
2022/05/29 02:10:33;;;;;;;;;;;15.40;99.40;;;;;;4975959;28;19917;-83
2022/05/29 02:13:02;;;;;;;;;;;15.30;99.50;;;;;;4973242;28;19914;-83
2022/05/29 02:15:33;;;;;;;;;;;15.30;99.60;;;;;;4974928;28;19925;-83
2022/05/29 02:18:01;;;;;;;;;;;15.30;99.60;;;;;;4978251;28;19910;-83
2022/05/29 02:20:29;;;;;;;;;;;15.20;99.70;;;;;;4981150;28;19910;-83
2022/05/29 02:22:58;;;;;;;;;;;15.20;99.70;;;;;;4976925;28;19910;-82
2022/05/29 02:25:25;;;;;;;;;;;15.20;99.80;;;;;;4979640;28;19910;-82
2022/05/29 02:27:59;;;;;;;;;;;15.20;99.90;;;;;;4978326;28;19910;-82
2022/05/29 02:30:28;;;;;;;;;;;15.10;99.80;;;;;;4979112;28;19964;-83
2022/05/29 02:32:56;;;;;;;;;;;15.10;99.90;;;;;;4978095;28;19910;-83
2022/05/29 02:35:30;;;;;;;;;;;15.00;99.80;;;;;;4980965;28;19957;-82
2022/05/29 02:38:03;;;;;;;;;;;15.00;99.90;;;;;;4978007;28;19910;-83
2022/05/29 02:40:47;;;;;;;;;;;15.00;99.90;;;;;;4978311;28;19918;-82
2022/05/29 02:43:29;;;;;;;;;;;15.00;99.90;;;;;;4979078;28;20005;-83
2022/05/29 02:46:13;;;;;;;;;;;15.00;99.90;;;;;;4979559;28;20267;-83
2022/05/29 02:48:47;;;;;;;;;;;15.00;99.90;;;;;;4978052;28;20421;-83
2022/05/29 02:51:21;;;;;;;;;;;14.90;99.90;;;;;;4985916;28;20368;-83
2022/05/29 02:53:47;;;;;;;;;;;14.90;99.90;;;;;;4977475;28;20000;-83
2022/05/29 02:56:13;;;;;;;;;;;14.80;99.90;;;;;;4982617;28;19914;-83
2022/05/29 02:58:40;;;;;;;;;;;14.80;99.80;;;;;;4979178;28;19910;-83
2022/05/29 03:01:06;;;;;;;;;;;14.80;99.90;;;;;;4961880;28;20330;-83
2022/05/29 03:03:57;;;;;;;;;;;14.80;99.90;;;;;;4977632;28;19965;-83
2022/05/29 03:06:40;;;;;;;;;;;14.80;99.90;;;;;;4976884;28;19910;-83
2022/05/29 03:09:13;;;;;;;;;;;14.80;99.90;;;;;;4977903;28;20354;-82
2022/05/29 03:11:41;;;;;;;;;;;14.70;99.90;;;;;;4977825;28;20023;-83
2022/05/29 03:14:22;;;;;;;;;;;14.70;99.90;;;;;;4977170;28;20326;-83
2022/05/29 03:16:47;;;;;;;;;;;14.60;99.90;;;;;;4977367;28;19925;-82
2022/05/29 03:19:16;;;;;;;;;;;14.60;99.90;;;;;;4977409;28;19910;-82
2022/05/29 03:22:00;;;;;;;;;;;14.70;99.90;;;;;;4978778;28;19917;-83
2022/05/29 03:24:45;;;;;;;;;;;14.60;99.90;;;;;;4977193;28;20294;-83
2022/05/29 03:27:15;;;;;;;;;;;14.60;99.90;;;;;;4938996;28;19914;-83
2022/05/29 03:29:40;;;;;;;;;;;14.60;99.90;;;;;;4976936;28;19917;-83
2022/05/29 03:32:07;;;;;;;;;;;14.60;99.90;;;;;;4976757;28;19910;-83
2022/05/29 03:34:33;;;;;;;;;;;14.50;99.90;;;;;;4975518;28;19918;-83
2022/05/29 03:36:58;;;;;;;;;;;14.50;99.90;;;;;;4976963;28;19915;-83
2022/05/29 03:39:24;;;;;;;;;;;14.50;99.90;;;;;;4978711;28;19953;-82
2022/05/29 03:41:51;;;;;;;;;;;14.50;99.90;;;;;;4975574;28;19918;-83
2022/05/29 03:44:18;;;;;;;;;;;14.50;99.90;;;;;;4976670;28;19984;-82
2022/05/29 03:46:44;;;;;;;;;;;14.60;99.90;;;;;;4976932;28;20001;-83
2022/05/29 03:49:10;;;;;;;;;;;14.60;99.90;;;;;;4975353;28;20350;-83
2022/05/29 03:51:37;;;;;;;;;;;14.50;99.90;;;;;;4979244;28;20317;-83
2022/05/29 03:54:03;;;;;;;;;;;14.50;99.90;;;;;;4959725;28;20278;-82
2022/05/29 03:56:28;;;;;;;;;;;14.50;99.90;;;;;;4977589;28;20362;-83
2022/05/29 03:58:54;;;;;;;;;;;14.40;99.90;;;;;;4976640;28;20001;-82
2022/05/29 04:01:20;;;;;;;;;;;14.40;99.90;;;;;;4976553;28;19917;-82
2022/05/29 04:03:45;;;;;;;;;;;14.40;99.90;;;;;;4976594;28;19917;-82
2022/05/29 04:06:11;;;;;;;;;;;14.30;99.90;;;;;;4975184;28;19910;-83
2022/05/29 04:14:05;;;;;;;;;;;14.20;99.90;;;;;;4977393;28;19973;-82
2022/05/29 04:16:31;;;;;;;;;;;14.30;99.90;;;;;;4976072;28;19922;-82
2022/05/29 04:18:56;;;;;;;;;;;14.20;99.90;;;;;;4976075;28;20001;-82
2022/05/29 04:21:22;;;;;;;;;;;14.30;99.90;;;;;;4976625;28;20008;-82
2022/05/29 04:23:47;;;;;;;;;;;14.30;99.90;;;;;;4976287;28;19969;-82
2022/05/29 04:26:14;;;;;;;;;;;14.20;99.90;;;;;;4977771;28;19985;-82
2022/05/29 04:28:39;;;;;;;;;;;14.10;99.90;;;;;;4976357;28;20205;-82
2022/05/29 04:31:05;;;;;;;;;;;14.10;99.90;;;;;;4977437;28;19938;-82
2022/05/29 04:33:30;;;;;;;;;;;14.20;99.90;;;;;;4975589;28;19964;-82
2022/05/29 04:35:56;;;;;;;;;;;14.20;99.90;;;;;;4977303;28;19972;-82
2022/05/29 04:38:27;;;;;;;;;;;14.20;99.90;;;;;;4978985;28;19914;-82
2022/05/29 04:40:53;;;;;;;;;;;14.10;99.90;;;;;;4977406;28;19926;-82
2022/05/29 04:43:19;;;;;;;;;;;14.10;99.90;;;;;;4979506;28;19962;-82
2022/05/29 04:45:45;;;;;;;;;;;14.10;99.90;;;;;;4976348;28;20362;-82
2022/05/29 04:48:11;;;;;;;;;;;14.10;99.90;;;;;;4977097;28;19917;-82
2022/05/29 04:50:37;;;;;;;;;;;14.10;99.90;;;;;;4980313;28;20217;-82
2022/05/29 04:53:03;;;;;;;;;;;14.10;99.90;;;;;;4978740;28;19910;-83
2022/05/29 04:55:28;;;;;;;;;;;14.10;99.90;;;;;;4978567;28;19941;-83
2022/05/29 04:57:54;;;;;;;;;;;14.10;99.90;;;;;;4977073;28;20385;-82
2022/05/29 05:00:20;;;;;;;;;;;14.10;99.90;;;;;;4980650;28;19911;-82
2022/05/29 05:02:45;;;;;;;;;;;14.00;99.90;;;;;;4975323;28;19964;-82
2022/05/29 05:05:11;;;;;;;;;;;14.10;99.90;;;;;;4975485;28;19965;-82
2022/05/29 05:07:37;;;;;;;;;;;14.10;99.90;;;;;;4975407;28;20290;-82
2022/05/29 05:10:10;;;;;;;;;;;14.00;99.90;;;;;;4975171;28;19914;-83
2022/05/29 05:12:35;;;;;;;;;;;14.00;99.90;;;;;;4976983;28;19949;-82
2022/05/29 05:15:01;;;;;;;;;;;14.10;99.90;;;;;;4978588;28;19917;-82
2022/05/29 05:17:26;;;;;;;;;;;14.20;99.90;;;;;;4976882;28;20314;-82
2022/05/29 05:19:52;;;;;;;;;;;14.20;99.90;;;;;;4982267;28;19913;-84
2022/05/29 05:22:17;;;;;;;;;;;14.20;99.90;;;;;;4960948;28;19906;-82
2022/05/29 05:24:43;;;;;;;;;;;14.20;99.60;;;;;;4976700;28;20004;-83
2022/05/29 05:27:09;;;;;;;;;;;14.20;99.60;;;;;;4975206;28;19910;-82
2022/05/29 05:29:34;;;;;;;;;;;14.20;99.50;;;;;;4976545;28;20083;-82
2022/05/29 05:32:00;;;;;;;;;;;14.20;99.50;;;;;;4975092;28;20263;-82
2022/05/29 05:34:27;;;;;;;;;;;14.20;99.20;;;;;;4976440;28;19978;-82
2022/05/29 05:36:53;;;;;;;;;;;14.20;99.40;;;;;;4974958;28;19937;-82
2022/05/29 05:39:20;;;;;;;;;;;14.20;99.50;;;;;;4974956;28;20390;-83
2022/05/29 05:41:45;;;;;;;;;;;14.30;99.20;;;;;;4974742;28;20005;-82
2022/05/29 05:44:11;;;;;;;;;;;14.40;98.90;;;;;;4974968;28;20346;-82
2022/05/29 05:46:36;;;;;;;;;;;14.40;99.00;;;;;;4975082;28;19917;-83
2022/05/29 05:49:02;;;;;;;;;;;14.50;98.70;;;;;;4974627;28;20081;-82
2022/05/29 05:51:27;;;;;;;;;;;14.40;98.80;;;;;;4976801;28;19914;-82
2022/05/29 05:53:53;;;;;;;;;;;14.40;98.70;;;;;;4978496;28;20386;-82
2022/05/29 05:56:18;;;;;;;;;;;14.50;98.60;;;;;;4980433;28;19969;-82
2022/05/29 05:58:44;;;;;;;;;;;14.50;98.50;;;;;;4980077;28;19960;-82
2022/05/29 06:01:15;;;;;;;;;;;14.50;98.20;;;;;;4980436;28;19910;-82
2022/05/29 06:03:41;;;;;;;;;;;14.50;98.40;;;;;;4978710;28;20005;-82
2022/05/29 06:06:07;;;;;;;;;;;14.60;97.90;;;;;;4980118;28;19934;-82
2022/05/29 06:08:33;;;;;;;;;;;14.60;97.90;;;;;;4978644;28;19910;-82
2022/05/29 06:10:58;;;;;;;;;;;14.70;97.40;;;;;;4979946;28;19910;-82
2022/05/29 06:13:24;;;;;;;;;;;14.80;97.30;;;;;;4978354;28;19918;-83
2022/05/29 06:15:49;;;;;;;;;;;14.90;97.50;;;;;;4978181;28;19918;-82
2022/05/29 06:18:16;;;;;;;;;;;15.00;97.30;;;;;;4978270;28;19910;-82
2022/05/29 06:20:41;;;;;;;;;;;14.90;97.30;;;;;;4978384;28;19918;-82
2022/05/29 06:23:07;;;;;;;;;;;15.10;96.80;;;;;;4978286;28;19910;-82
2022/05/29 06:25:33;;;;;;;;;;;15.10;96.40;;;;;;4981676;28;20278;-82
2022/05/29 06:28:00;;;;;;;;;;;15.00;96.60;;;;;;4978134;28;19910;-82
2022/05/29 06:30:28;;;;;;;;;;;15.10;96.50;;;;;;4981259;28;20363;-86
2022/05/29 06:32:54;;;;;;;;;;;15.20;96.60;;;;;;4960643;28;19910;-85
2022/05/29 06:35:20;;;;;;;;;;;15.30;96.10;;;;;;4978498;28;19988;-85
2022/05/29 06:37:45;;;;;;;;;;;15.40;95.90;;;;;;4980476;28;19910;-84
2022/05/29 06:40:11;;;;;;;;;;;15.40;95.30;;;;;;4977941;28;19976;-84
2022/05/29 06:42:37;;;;;;;;;;;15.40;95.20;;;;;;4978335;28;19968;-84
2022/05/29 06:45:03;;;;;;;;;;;15.30;95.50;;;;;;4977906;28;20004;-84
2022/05/29 06:47:29;;;;;;;;;;;15.40;95.30;;;;;;4977757;28;20358;-84
2022/05/29 06:49:55;;;;;;;;;;;15.40;94.90;;;;;;4977822;28;19949;-84
2022/05/29 06:52:20;;;;;;;;;;;15.50;94.60;;;;;;4977674;28;19997;-85
2022/05/29 06:54:46;;;;;;;;;;;15.60;95.00;;;;;;4977399;28;19914;-84
2022/05/29 06:57:12;;;;;;;;;;;15.80;94.30;;;;;;4978023;28;19917;-84
2022/05/29 07:06:59;;;;;;;;;;;15.90;94.40;;;;;;4977622;28;20457;-84
2022/05/29 07:07:53;;;;;;;;;;;16.00;93.10;;;;;;4977724;28;19917;-84
2022/05/29 07:10:19;;;;;;;;;;;16.00;92.50;;;;;;4977298;28;19910;-84
2022/05/29 07:12:44;;;;;;;;;;;16.10;93.00;;;;;;4977134;28;19953;-84
2022/05/29 07:15:10;;;;;;;;;;;16.20;92.80;;;;;;4976928;28;20004;-84
2022/05/29 07:17:36;;;;;;;;;;;16.30;93.20;;;;;;4977367;28;19911;-84
2022/05/29 07:20:02;;;;;;;;;;;16.40;92.90;;;;;;4977513;28;19910;-84
2022/05/29 07:22:30;;;;;;;;;;;16.50;92.50;;;;;;4982610;28;19913;-86
2022/05/29 07:24:56;;;;;;;;;;;16.50;92.40;;;;;;4983341;28;20354;-86
2022/05/29 07:27:21;;;;;;;;;;;16.60;92.40;;;;;;4977031;28;19917;-86
2022/05/29 07:29:47;;;;;;;;;;;16.60;91.80;;;;;;4976959;28;19917;-86
2022/05/29 07:32:12;;;;;;;;;;;16.70;92.20;;;;;;4976812;28;19920;-86
2022/05/29 07:34:38;;;;;;;;;;;16.80;91.60;;;;;;4959213;28;19910;-86
2022/05/29 07:37:06;;;;;;;;;;;16.70;91.60;;;;;;4976976;28;19950;-86
2022/05/29 07:39:34;;;;;;;;;;;16.80;91.40;;;;;;4976743;28;19918;-86
2022/05/29 07:44:44;;;;;;;;;;;16.90;91.10;;;;;;4983654;28;19914;-85
2022/05/29 07:47:09;;;;;;;;;;;16.90;91.00;;;;;;4982022;28;20094;-86
2022/05/29 07:49:37;;;;;;;;;;;17.00;91.10;;;;;;4964182;28;20361;-86
2022/05/29 07:52:03;;;;;;;;;;;17.10;90.60;;;;;;4978140;28;19956;-85
2022/05/29 07:54:28;;;;;;;;;;;17.10;89.70;;;;;;4976633;28;20321;-86
2022/05/29 07:56:54;;;;;;;;;;;17.10;89.50;;;;;;4976429;28;19914;-86
2022/05/29 07:59:20;;;;;;;;;;;17.20;90.00;;;;;;4978422;28;20194;-84
2022/05/29 08:01:45;;;;;;;;;;;17.20;88.30;;;;;;4978219;28;19973;-85
2022/05/29 08:04:11;;;;;;;;;;;17.30;87.40;;;;;;4981591;28;20205;-85
2022/05/29 08:06:36;;;;;;;;;;;17.30;88.00;;;;;;4978081;28;20182;-85
2022/05/29 08:09:02;;;;;;;;;;;17.40;88.90;;;;;;4981116;28;20005;-85
2022/05/29 08:11:27;;;;;;;;;;;17.60;89.40;;;;;;4977715;28;19980;-86
2022/05/29 08:13:54;;;;;;;;;;;17.70;87.50;;;;;;4976405;28;20416;-85
2022/05/29 08:16:19;;;;;;;;;;;17.90;87.80;;;;;;4978251;28;19918;-85
2022/05/29 08:18:46;;;;;;;;;;;18.00;85.60;;;;;;4979087;28;19910;-85
2022/05/29 08:21:12;;;;;;;;;;;18.10;85.10;;;;;;4977994;28;19910;-86
2022/05/29 08:23:38;;;;;;;;;;;18.00;85.20;;;;;;4978237;28;19973;-86
2022/05/29 08:31:32;;;;;;;;;;;18.20;83.80;;;;;;4975779;28;19917;-85
2022/05/29 08:33:58;;;;;;;;;;;18.20;83.90;;;;;;4975902;28;19910;-85
2022/05/29 08:36:24;;;;;;;;;;;18.20;83.80;;;;;;4975974;28;20374;-85
2022/05/29 08:38:52;;;;;;;;;;;18.30;83.20;;;;;;4975964;28;19918;-85
2022/05/29 08:41:17;;;;;;;;;;;18.40;82.90;;;;;;4975822;28;20013;-85
2022/05/29 08:43:50;;;;;;;;;;;18.50;82.50;;;;;;4976000;28;19957;-85
2022/05/29 08:46:20;;;;;;;;;;;18.50;80.70;;;;;;4974320;28;19910;-85
2022/05/29 08:48:48;;;;;;;;;;;18.60;81.70;;;;;;4975499;28;19910;-85
2022/05/29 08:51:19;;;;;;;;;;;18.70;80.80;;;;;;4975367;28;19910;-85
2022/05/29 08:53:48;;;;;;;;;;;18.80;82.30;;;;;;4975456;28;20281;-85
2022/05/29 08:56:22;;;;;;;;;;;19.00;80.10;;;;;;4975443;28;19922;-85
2022/05/29 08:58:56;;;;;;;;;;;19.00;79.70;;;;;;4975599;28;19910;-85
2022/05/29 09:01:36;;;;;;;;;;;19.00;79.60;;;;;;4975474;28;20285;-85
2022/05/29 09:04:04;;;;;;;;;;;19.00;77.70;;;;;;4975718;28;19916;-85
2022/05/29 09:06:59;;;;;;;;;;;19.00;77.30;;;;;;4957955;28;20397;-85
2022/05/29 09:09:24;;;;;;;;;;;19.00;75.90;;;;;;4962515;28;20349;-85
2022/05/29 09:11:52;;;;;;;;;;;19.10;77.00;;;;;;4975171;28;19949;-85
2022/05/29 09:14:30;;;;;;;;;;;19.30;76.50;;;;;;4975324;28;20387;-85
2022/05/29 09:17:08;;;;;;;;;;;19.30;75.50;;;;;;4975314;28;20289;-85
2022/05/29 09:19:43;;;;;;;;;;;19.40;76.90;;;;;;4975129;28;19910;-85
2022/05/29 09:22:18;;;;;;;;;;;19.40;75.70;;;;;;4973949;28;19917;-85
2022/05/29 09:24:48;;;;;;;;;;;19.50;75.40;;;;;;4974835;28;19973;-85
2022/05/29 09:27:15;;;;;;;;;;;19.60;75.60;;;;;;4974829;28;19917;-85
2022/05/29 09:29:40;;;;;;;;;;;19.70;72.40;;;;;;4974826;28;19910;-85
2022/05/29 09:32:12;;;;;;;;;;;19.70;72.40;;;;;;4974999;28;20409;-84
2022/05/29 09:34:37;;;;;;;;;;;19.70;74.10;;;;;;4974921;28;19911;-85
2022/05/29 09:37:17;;;;;;;;;;;19.80;74.60;;;;;;4974863;28;19914;-85
2022/05/29 09:39:48;;;;;;;;;;;19.90;74.80;;;;;;4974714;28;19965;-85
2022/05/29 09:42:20;;;;;;;;;;;20.00;73.10;;;;;;4974931;28;19914;-86
2022/05/29 09:45:04;;;;;;;;;;;20.00;72.50;;;;;;4974964;28;20370;-85
2022/05/29 09:50:17;;;;;;;;;;;20.00;73.10;;;;;;4974620;28;20074;-85
2022/05/29 09:52:44;;;;;;;;;;;20.20;72.80;;;;;;4974861;28;20024;-86
2022/05/29 09:55:19;;;;;;;;;;;20.40;73.70;;;;;;4974754;28;19918;-85
2022/05/29 09:57:48;;;;;;;;;;;20.40;71.70;;;;;;4973420;28;19917;-86
2022/05/29 10:00:23;;;;;;;;;;;20.50;70.70;;;;;;4974733;28;20053;-84
2022/05/29 10:02:48;;;;;;;;;;;20.60;72.70;;;;;;4974680;28;19917;-85
2022/05/29 10:05:33;;;;;;;;;;;20.60;71.00;;;;;;4974768;28;20259;-85
2022/05/29 10:07:59;;;;;;;;;;;20.50;72.30;;;;;;4957340;28;19933;-85
2022/05/29 10:10:24;;;;;;;;;;;20.50;72.60;;;;;;4974518;28;19917;-85
2022/05/29 10:12:50;;;;;;;;;;;20.60;70.30;;;;;;4974552;28;19957;-85
2022/05/29 10:15:25;;;;;;;;;;;20.60;70.10;;;;;;4974376;28;19945;-84
2022/05/29 10:18:01;;;;;;;;;;;20.60;70.50;;;;;;4973527;28;19969;-84
2022/05/29 10:20:27;;;;;;;;;;;20.70;69.80;;;;;;4974688;28;19957;-84
2022/05/29 10:22:55;;;;;;;;;;;20.70;69.30;;;;;;4974294;28;19910;-85
2022/05/29 10:25:23;;;;;;;;;;;20.60;68.20;;;;;;4974494;28;19964;-85
2022/05/29 10:27:49;;;;;;;;;;;20.70;69.80;;;;;;4974488;28;19910;-84
2022/05/29 10:30:31;;;;;;;;;;;20.80;69.70;;;;;;4974692;28;19910;-85
2022/05/29 10:33:04;;;;;;;;;;;20.90;69.30;;;;;;4974224;28;19997;-84
2022/05/29 10:35:31;;;;;;;;;;;20.80;65.50;;;;;;4956774;28;19922;-84
2022/05/29 10:37:56;;;;;;;;;;;20.70;68.70;;;;;;4977168;28;20009;-84
2022/05/29 10:40:26;;;;;;;;;;;20.80;69.90;;;;;;4977783;28;20021;-84
2022/05/29 10:42:54;;;;;;;;;;;21.00;68.80;;;;;;4978014;28;20356;-85
2022/05/29 10:45:21;;;;;;;;;;;21.10;69.90;;;;;;4977959;28;19941;-84
2022/05/29 10:48:16;;;;;;;;;;;21.20;68.20;;;;;;4977886;28;19911;-84
2022/05/29 10:50:42;;;;;;;;;;;21.30;67.90;;;;;;4925397;28;19911;-84
2022/05/29 10:53:23;;;;;;;;;;;21.40;68.00;;;;;;4977656;28;19933;-84
2022/05/29 10:56:07;;;;;;;;;;;21.50;66.90;;;;;;4976230;28;19918;-84
2022/05/29 10:58:42;;;;;;;;;;;21.60;67.90;;;;;;4977522;28;20313;-84
2022/05/29 11:04:21;;;;;;;;;;;21.70;67.50;;;;;;4977477;28;19917;-84
2022/05/29 11:07:13;;;;;;;;;;;21.70;65.10;;;;;;4977526;28;19917;-84
2022/05/29 11:09:44;;;;;;;;;;;21.70;67.10;;;;;;4954784;28;19910;-84
2022/05/29 11:12:30;;;;;;;;;;;21.90;66.20;;;;;;4977339;28;20286;-83
2022/05/29 11:15:15;;;;;;;;;;;22.00;65.80;;;;;;4977074;28;19914;-83
2022/05/29 11:17:47;;;;;;;;;;;22.00;65.10;;;;;;4977090;28;19993;-83
2022/05/29 11:20:18;;;;;;;;;;;22.00;64.60;;;;;;4977459;28;20107;-83
2022/05/29 11:22:49;;;;;;;;;;;22.10;65.90;;;;;;4977573;28;19910;-83
2022/05/29 11:25:18;;;;;;;;;;;22.20;63.50;;;;;;4977121;28;19933;-84
2022/05/29 11:28:05;;;;;;;;;;;22.10;64.50;;;;;;4977029;28;19910;-83
2022/05/29 11:30:31;;;;;;;;;;;22.10;65.20;;;;;;4977708;28;19922;-83
2022/05/29 11:33:16;;;;;;;;;;;22.30;66.70;;;;;;4976951;28;20274;-83
2022/05/29 11:36:00;;;;;;;;;;;22.40;64.80;;;;;;4976771;28;19919;-83
2022/05/29 11:38:28;;;;;;;;;;;22.50;65.00;;;;;;4977260;28;19922;-83
2022/05/29 11:41:00;;;;;;;;;;;22.60;64.40;;;;;;4976741;28;19922;-84
2022/05/29 11:43:29;;;;;;;;;;;22.80;64.80;;;;;;4977077;28;20329;-83
2022/05/29 11:51:39;;;;;;;;;;;22.70;62.10;;;;;;4976606;28;19917;-84
2022/05/29 11:54:04;;;;;;;;;;;23.00;62.70;;;;;;4977103;28;19916;-84
2022/05/29 11:56:36;;;;;;;;;;;23.10;62.30;;;;;;4977611;28;20013;-84
2022/05/29 11:59:11;;;;;;;;;;;23.00;60.40;;;;;;4959317;28;20313;-83
2022/05/29 12:01:39;;;;;;;;;;;22.90;60.30;;;;;;4976449;28;19917;-83
2022/05/29 12:04:13;;;;;;;;;;;23.00;61.60;;;;;;4977065;28;20367;-83
2022/05/29 12:07:02;;;;;;;;;;;23.10;61.10;;;;;;4978191;28;19974;-83
2022/05/29 12:09:32;;;;;;;;;;;23.40;59.80;;;;;;4978152;28;20117;-83
2022/05/29 12:12:01;;;;;;;;;;;23.50;59.60;;;;;;4976402;28;19918;-83
2022/05/29 12:14:31;;;;;;;;;;;23.60;60.60;;;;;;4976233;28;19917;-83
2022/05/29 12:16:59;;;;;;;;;;;23.70;60.80;;;;;;4976160;28;19922;-83
2022/05/29 12:19:41;;;;;;;;;;;23.80;59.70;;;;;;4976533;28;19933;-84
2022/05/29 12:22:08;;;;;;;;;;;24.00;59.20;;;;;;4978136;28;19910;-84
2022/05/29 12:24:35;;;;;;;;;;;24.00;58.80;;;;;;4978903;28;19930;-84
2022/05/29 12:27:07;;;;;;;;;;;24.00;59.20;;;;;;4976178;28;19915;-83
2022/05/29 12:29:38;;;;;;;;;;;24.20;59.30;;;;;;4977648;28;19920;-83
2022/05/29 12:32:06;;;;;;;;;;;24.40;58.40;;;;;;4976106;28;19911;-84
2022/05/29 12:34:36;;;;;;;;;;;24.50;58.40;;;;;;4958445;28;19910;-84
2022/05/29 12:37:07;;;;;;;;;;;24.60;57.00;;;;;;4975752;28;19918;-83
2022/05/29 12:39:35;;;;;;;;;;;24.60;55.90;;;;;;4975552;28;19914;-84
2022/05/29 12:42:01;;;;;;;;;;;24.60;57.80;;;;;;4977168;28;19925;-83
2022/05/29 12:45:02;;;;;;;;;;;24.90;57.00;;;;;;4975929;28;20009;-83
2022/05/29 12:47:40;;;;;;;;;;;25.10;56.30;;;;;;4917975;29;19917;-84
2022/05/29 12:50:15;;;;;;;;;;;24.90;56.50;;;;;;4970072;28;19906;-84
2022/05/29 12:52:56;;;;;;;;;;;25.00;56.20;;;;;;4975726;28;19910;-83
2022/05/29 12:55:36;;;;;;;;;;;25.20;56.60;;;;;;4975318;28;19949;-84
2022/05/29 12:58:02;;;;;;;;;;;25.60;55.90;;;;;;4975486;28;20009;-84
2022/05/29 13:00:27;;;;;;;;;;;25.90;55.40;;;;;;4976467;28;19945;-84
2022/05/29 13:02:58;;;;;;;;;;;25.80;55.20;;;;;;4976789;28;19921;-84
2022/05/29 13:05:31;;;;;;;;;;;25.70;56.10;;;;;;4975346;28;19914;-84
2022/05/29 13:08:16;;;;;;;;;;;25.80;56.00;;;;;;4977634;28;20366;-83
2022/05/29 13:10:43;;;;;;;;;;;26.00;54.60;;;;;;4968649;28;19910;-83
2022/05/29 13:13:13;;;;;;;;;;;26.30;55.50;;;;;;4977192;28;20214;-83
2022/05/29 13:15:40;;;;;;;;;;;26.50;54.90;;;;;;4983063;28;20106;-84
2022/05/29 13:18:15;;;;;;;;;;;26.70;54.60;;;;;;4979159;28;19949;-84
2022/05/29 13:21:04;;;;;;;;;;;27.00;54.20;;;;;;4980982;28;20083;-86
2022/05/29 13:23:41;;;;;;;;;;;27.50;53.70;;;;;;4970255;28;19918;-84
2022/05/29 13:26:07;;;;;;;;;;;28.00;53.30;;;;;;4983662;28;19906;-85
2022/05/29 13:28:41;;;;;;;;;;;28.30;52.90;;;;;;4982397;28;20366;-84
2022/05/29 13:31:14;;;;;;;;;;;28.30;52.10;;;;;;4975584;28;20385;-85
2022/05/29 13:33:45;;;;;;;;;;;28.60;52.80;;;;;;4974945;28;19910;-86
2022/05/29 13:36:30;;;;;;;;;;;30.10;52.80;;;;;;4976868;28;19926;-85
2022/05/29 13:38:56;;;;;;;;;;;31.80;51.40;;;;;;4974676;28;19910;-85
2022/05/29 13:41:40;;;;;;;;;;;32.60;49.80;;;;;;4974735;28;19923;-85
2022/05/29 13:44:24;;;;;;;;;;;33.60;49.80;;;;;;4974916;28;19910;-85
2022/05/29 13:47:10;;;;;;;;;;;34.50;48.40;;;;;;4974687;28;19997;-86
2022/05/29 13:49:43;;;;;;;;;;;36.00;47.40;;;;;;4974806;28;19917;-84
2022/05/29 13:52:08;;;;;;;;;;;36.60;46.50;;;;;;4974832;28;20359;-85
2022/05/29 13:54:34;;;;;;;;;;;37.00;46.20;;;;;;4958013;28;19911;-86
2022/05/29 13:57:02;;;;;;;;;;;37.80;45.40;;;;;;4975683;28;19918;-86
2022/05/29 14:05:22;;;;;;;;;;;38.30;43.80;;;;;;4975073;28;19917;-86
2022/05/29 14:08:07;;;;;;;;;;;38.50;43.70;;;;;;4974702;28;20347;-85
2022/05/29 14:10:46;;;;;;;;;;;39.10;43.50;;;;;;4974818;28;19910;-85
2022/05/29 14:13:25;;;;;;;;;;;39.60;43.00;;;;;;4978669;28;19910;-85
2022/05/29 14:15:51;;;;;;;;;;;40.70;41.80;;;;;;4985610;28;19918;-86
2022/05/29 14:18:22;;;;;;;;;;;41.20;41.50;;;;;;4978397;28;20021;-86
2022/05/29 14:20:48;;;;;;;;;;;41.60;41.60;;;;;;4978444;28;19942;-85
2022/05/29 14:23:13;;;;;;;;;;;41.30;40.60;;;;;;4977007;28;19910;-85
2022/05/29 14:25:39;;;;;;;;;;;41.90;40.90;;;;;;4988858;28;19906;-86
2022/05/29 14:28:11;;;;;;;;;;;42.60;40.40;;;;;;4987086;28;19963;-86
2022/05/29 14:30:39;;;;;;;;;;;42.70;39.60;;;;;;4981590;28;19906;-85
2022/05/29 14:33:08;;;;;;;;;;;42.20;39.50;;;;;;4985550;28;19913;-86
2022/05/29 14:35:43;;;;;;;;;;;41.70;39.40;;;;;;4982999;28;19921;-86
2022/05/29 14:38:21;;;;;;;;;;;42.20;39.20;;;;;;4978241;28;19918;-86
2022/05/29 14:40:56;;;;;;;;;;;42.30;39.00;;;;;;4977735;28;19929;-85
2022/05/29 14:43:27;;;;;;;;;;;42.90;39.00;;;;;;4977971;28;20001;-86
2022/05/29 14:45:58;;;;;;;;;;;42.50;38.80;;;;;;4977995;28;19910;-86
2022/05/29 14:48:48;;;;;;;;;;;43.00;38.50;;;;;;4976585;28;19993;-85
2022/05/29 14:51:40;;;;;;;;;;;43.90;38.70;;;;;;4980669;28;20253;-85
2022/05/29 14:54:13;;;;;;;;;;;43.40;38.50;;;;;;4979225;28;19910;-85
2022/05/29 14:56:40;;;;;;;;;;;44.40;38.00;;;;;;4983375;28;19922;-86
2022/05/29 14:59:23;;;;;;;;;;;43.40;37.40;;;;;;4979401;28;19914;-84
2022/05/29 15:01:54;;;;;;;;;;;43.70;38.00;;;;;;4977714;28;20440;-85
2022/05/29 15:04:22;;;;;;;;;;;43.30;37.00;;;;;;4977819;28;20009;-85
2022/05/29 15:12:21;;;;;;;;;;;44.30;37.20;;;;;;4977620;28;19933;-85
2022/05/29 15:14:46;;;;;;;;;;;44.50;37.10;;;;;;4977323;28;19910;-85